Aérodrome :
LOGIN :

S'inscrire | Disclaimer

   EN    FR    IT 

 










Légende :    VFR   VFR Marginal   IFR   IFR Intensif   IFR Très Intensif
Visi : 
Plafond : 
>= 8 km
>= 3000ft
5 à 8 km
1000 à 3000 ft
1500m à 5 km
500 à 1000 ft
800 à 1500m
200 à 500 ft
< 800m
< 200 ft
Symboles :   Orages  Brouillard  Fortes neiges  Fortes précipitations  Vent > 20 kt
SIGMETs :   Divers  Orages  Givrage  Turbulence  Onde Orograph.  Cendres Volcan.







- Altitude de l'aérodrome : 44 ft
- Code IATA : SOU
- Voir les cartes d'approche


EGHI - Southampton

DERNIER METAR :
  • 131620Z 28010KT 240V310 9999 FEW020 06/02 Q0994

METARs EXPIRÉS :
  • 131550Z 28008KT 250V320 7000 FEW015 SCT037 07/04 Q0994
  • 131520Z 29014G29KT 240V320 7000 -RA FEW015 SCT021 BKN036 08/05 Q0994
  • 131450Z 26011KT 220V290 7000 RA FEW017 SCT020 09/07 Q0993
  • 131420Z 24010KT 200V270 9999 FEW017 SCT023 10/07 Q0993
  • 131350Z 24010KT 210V280 9999 FEW017 SCT022 09/07 Q0995

TAF TAF EGHI
Valide du 13 à 15h jusqu'au 13 à 23h UTC


131406Z 1315/1323 25008KT 9999 SCT040
TEMPO 1315/1323 6000 SHRA BKN010
PROB30
TEMPO 1318/1323 26020G32KT 2000 +SHRAGS BKN004 BKN020CB
ATIS : +44 23 8062 7103
Pas de NOTAMs connus pour ce terrain.
1 SIGMET publié pour la FIR London (EGTT) :
 
Turbulence forte
EGTT SIGMET 02 VALID 131500/131900 EGRR
EGTT LONDON FIR SEV TURB FCST W OF LINE N5204 W00600 - N4903 W00654 SFC/FL060 MOV E 50KT NC=



MET'MAP, la Météo Aéronautique d'un coup d'oeil ! - Copyright ORBIFLY Décembre 2007 - Disclaimer

ORBIFLY MET'MAP TEAM :

Programmation & Développement : Alexandra Zaïnal
Conception & Développement : Baudouin d'Aumeries
Co-Programmation & Développement : Marc-Olivier Méhu
Soutien technique & logistique : Manuel Goepfert

Contact : metmap@orbifly.com




SOURCES & CREDITS :

   NOAA